createdAt,value
2019-03-13T00:00:59.213Z,1.00
2019-03-13T00:03:26.456Z,0.80
2019-03-13T00:05:54.014Z,0.97
2019-03-13T00:08:21.243Z,1.10
2019-03-13T00:10:48.489Z,1.10
2019-03-13T00:13:15.741Z,1.23
2019-03-13T00:15:43.065Z,1.03
2019-03-13T00:18:10.369Z,1.30
2019-03-13T00:20:37.562Z,1.30
2019-03-13T00:23:04.917Z,1.00
2019-03-13T00:25:32.166Z,1.20
2019-03-13T00:27:59.413Z,1.30
2019-03-13T00:30:26.666Z,1.10
2019-03-13T00:32:53.957Z,1.00
2019-03-13T00:35:21.216Z,1.00
2019-03-13T00:37:48.432Z,1.40
2019-03-13T00:40:15.586Z,1.20
2019-03-13T00:42:42.811Z,1.10
2019-03-13T00:45:11.127Z,1.20
2019-03-13T00:47:38.346Z,1.00
2019-03-13T00:50:05.684Z,0.97
2019-03-13T00:52:32.832Z,1.00
2019-03-13T00:55:00.385Z,1.03
2019-03-13T00:57:27.675Z,1.20
2019-03-13T00:59:54.824Z,0.90
2019-03-13T01:02:34.500Z,0.93
2019-03-13T01:05:10.842Z,1.03
2019-03-13T01:07:38.180Z,1.10
2019-03-13T01:10:05.550Z,1.03
2019-03-13T01:12:32.798Z,1.20
2019-03-13T01:15:00.079Z,1.10
2019-03-13T01:17:27.338Z,1.07
2019-03-13T01:19:54.578Z,0.90
2019-03-13T01:22:21.844Z,1.23
2019-03-13T01:24:49.068Z,0.90
2019-03-13T01:27:16.191Z,0.83
2019-03-13T01:29:43.362Z,1.10
2019-03-13T01:32:37.720Z,1.00
2019-03-13T01:35:12.598Z,0.73
2019-03-13T01:37:39.842Z,1.27
2019-03-13T01:40:09.231Z,1.17
2019-03-13T01:42:36.461Z,1.10
2019-03-13T01:45:05.045Z,0.90
2019-03-13T01:47:32.336Z,1.20
2019-03-13T01:49:59.710Z,1.20
2019-03-13T01:52:26.862Z,1.53
2019-03-13T01:54:54.004Z,1.00
2019-03-13T01:57:22.283Z,1.20
2019-03-13T01:59:49.432Z,1.10
2019-03-13T02:02:16.697Z,1.07
2019-03-13T02:04:44.042Z,1.23
2019-03-13T02:07:11.314Z,1.03
2019-03-13T02:09:38.444Z,1.20
2019-03-13T02:12:05.691Z,1.10
2019-03-13T02:14:32.916Z,1.20
2019-03-13T02:17:00.062Z,0.80
2019-03-13T02:19:27.306Z,0.80
2019-03-13T02:21:54.553Z,1.10
2019-03-13T02:24:21.800Z,1.10
2019-03-13T02:26:49.073Z,0.90
2019-03-13T02:29:16.180Z,1.20
2019-03-13T02:31:43.443Z,1.00
2019-03-13T02:34:10.738Z,1.07
2019-03-13T02:36:37.981Z,0.97
2019-03-13T02:39:05.231Z,1.13
2019-03-13T02:41:32.505Z,1.07
2019-03-13T02:43:59.865Z,1.10
2019-03-13T02:46:27.085Z,0.90
2019-03-13T02:48:54.341Z,1.00
2019-03-13T02:51:21.551Z,1.30
2019-03-13T02:53:48.695Z,1.10
2019-03-13T02:56:15.931Z,1.10
2019-03-13T02:58:43.074Z,1.33
2019-03-13T03:01:28.269Z,1.43
2019-03-13T03:03:57.225Z,1.10
2019-03-13T03:06:24.567Z,1.10
2019-03-13T03:08:51.804Z,1.00
2019-03-13T03:11:19.051Z,1.00
2019-03-13T03:13:46.412Z,1.10
2019-03-13T03:16:13.675Z,1.10
2019-03-13T03:18:40.951Z,1.00
2019-03-13T03:21:08.078Z,1.10
2019-03-13T03:23:35.219Z,1.30
2019-03-13T03:26:02.596Z,1.40
2019-03-13T03:28:29.735Z,1.03
2019-03-13T03:30:56.865Z,1.03
2019-03-13T03:33:24.228Z,0.90
2019-03-13T03:35:51.359Z,0.80
2019-03-13T03:38:18.638Z,0.90
2019-03-13T03:40:45.887Z,0.70
2019-03-13T03:43:13.018Z,0.70
2019-03-13T03:45:40.267Z,0.83
2019-03-13T03:48:07.517Z,0.80
2019-03-13T03:50:34.841Z,0.70
2019-03-13T03:53:02.124Z,0.70
2019-03-13T03:55:29.334Z,0.80
2019-03-13T03:57:56.608Z,0.60
2019-03-13T04:00:23.834Z,0.60
2019-03-13T04:02:51.003Z,0.50
2019-03-13T04:05:18.386Z,0.70
2019-03-13T04:07:45.619Z,0.53
2019-03-13T04:10:12.996Z,0.70
2019-03-13T04:12:40.223Z,0.60
2019-03-13T04:15:07.481Z,0.60
2019-03-13T04:17:34.725Z,0.60
2019-03-13T04:20:02.022Z,0.60
2019-03-13T04:22:29.263Z,0.50
2019-03-13T04:25:10.654Z,0.50
2019-03-13T04:27:38.026Z,0.60
2019-03-13T04:30:05.593Z,0.67
2019-03-13T04:32:32.747Z,0.57
2019-03-13T04:34:59.978Z,0.60
2019-03-13T04:37:27.314Z,0.50
2019-03-13T04:39:54.560Z,0.70
2019-03-13T04:42:21.803Z,0.60
2019-03-13T04:44:49.045Z,0.60
2019-03-13T04:47:16.263Z,0.60
2019-03-13T04:49:43.551Z,0.60
2019-03-13T04:52:10.796Z,0.50
2019-03-13T04:54:37.951Z,0.50
2019-03-13T04:57:05.119Z,0.60
2019-03-13T04:59:32.372Z,0.53
2019-03-13T05:01:59.607Z,0.60
2019-03-13T05:04:26.893Z,0.60
2019-03-13T05:06:54.137Z,0.60
2019-03-13T05:09:33.577Z,0.60
2019-03-13T05:12:00.697Z,0.60
2019-03-13T05:14:27.926Z,0.70
2019-03-13T05:16:55.179Z,0.60
2019-03-13T05:19:22.409Z,0.60
2019-03-13T05:21:49.671Z,0.70
2019-03-13T05:24:17.015Z,0.60
2019-03-13T05:26:44.281Z,0.70
2019-03-13T05:29:11.511Z,0.70
2019-03-13T05:31:38.669Z,0.60
2019-03-13T05:34:05.801Z,0.67
2019-03-13T05:36:32.957Z,0.77
2019-03-13T05:39:00.210Z,1.00
2019-03-13T05:41:27.468Z,0.60
2019-03-13T05:43:54.698Z,0.60
2019-03-13T05:46:22.020Z,0.63
2019-03-13T05:48:49.324Z,0.60
2019-03-13T05:51:16.495Z,0.70
2019-03-13T05:53:43.645Z,0.60
2019-03-13T05:56:11.021Z,0.80
2019-03-13T05:58:38.237Z,0.77
2019-03-13T06:01:05.584Z,1.10
2019-03-13T06:03:32.865Z,0.97
2019-03-13T06:06:00.107Z,0.80
2019-03-13T06:08:27.373Z,0.70
2019-03-13T06:10:54.614Z,0.60
2019-03-13T06:13:21.906Z,0.70
2019-03-13T06:15:49.148Z,0.70
2019-03-13T06:18:16.331Z,0.60
2019-03-13T06:20:43.555Z,0.60
2019-03-13T06:23:10.808Z,0.70
2019-03-13T06:25:38.047Z,0.50
2019-03-13T06:28:05.196Z,0.67
2019-03-13T06:30:32.479Z,0.60
2019-03-13T06:32:59.754Z,0.60
2019-03-13T06:35:26.969Z,0.77
2019-03-13T06:37:54.119Z,0.70
2019-03-13T06:40:21.356Z,0.80
2019-03-13T06:42:48.469Z,0.60
2019-03-13T06:45:15.725Z,0.60
2019-03-13T06:47:42.966Z,0.67
2019-03-13T06:50:14.767Z,0.70
2019-03-13T06:52:42.016Z,0.80
2019-03-13T06:55:09.305Z,0.70
2019-03-13T06:57:36.563Z,0.60
2019-03-13T07:00:22.321Z,0.60
2019-03-13T07:02:54.918Z,0.80
2019-03-13T07:05:50.565Z,0.60
2019-03-13T07:08:25.022Z,0.90
2019-03-13T07:11:23.671Z,0.70
2019-03-13T07:13:59.728Z,0.77
2019-03-13T07:16:48.647Z,0.80
2019-03-13T07:19:31.338Z,0.80
2019-03-13T07:22:23.956Z,0.70
2019-03-13T07:25:17.108Z,0.70
2019-03-13T07:27:51.400Z,0.90
2019-03-13T07:30:29.366Z,0.77
2019-03-13T07:33:05.501Z,0.80
2019-03-13T07:35:55.120Z,0.67
2019-03-13T07:38:52.335Z,0.80
2019-03-13T07:41:25.749Z,0.60
2019-03-13T07:44:04.607Z,0.80
2019-03-13T07:46:59.996Z,0.67
2019-03-13T07:49:58.402Z,0.60
2019-03-13T07:52:43.568Z,0.70
2019-03-13T07:55:36.418Z,0.77
2019-03-13T07:58:14.201Z,0.80
2019-03-13T08:00:59.466Z,0.60
2019-03-13T08:03:48.886Z,0.70
2019-03-13T08:06:34.262Z,0.70
2019-03-13T08:09:16.574Z,0.80
2019-03-13T08:12:09.343Z,0.90
2019-03-13T08:14:54.757Z,0.60
2019-03-13T08:17:30.452Z,0.70
2019-03-13T08:20:15.084Z,0.70
2019-03-13T08:23:10.560Z,0.70
2019-03-13T08:25:55.749Z,0.70
2019-03-13T08:28:37.246Z,0.55
2019-03-13T08:31:27.386Z,0.60
2019-03-13T08:34:12.406Z,0.50
2019-03-13T08:36:59.292Z,0.50
2019-03-13T08:39:54.613Z,0.50
2019-03-13T08:42:47.116Z,0.50
2019-03-13T08:45:37.126Z,0.65
2019-03-13T08:48:26.656Z,0.55
2019-03-13T08:51:16.250Z,0.50
2019-03-13T08:54:11.895Z,0.55
2019-03-13T08:56:47.332Z,0.30
2019-03-13T08:59:26.148Z,0.42
2019-03-13T09:02:18.680Z,0.50
2019-03-13T09:04:57.878Z,0.40
2019-03-13T09:07:39.620Z,0.50
2019-03-13T09:10:29.085Z,0.50
2019-03-13T09:13:09.800Z,0.50
2019-03-13T09:15:49.426Z,0.40
2019-03-13T09:18:30.546Z,0.40
2019-03-13T09:21:02.740Z,0.30
2019-03-13T09:23:46.098Z,0.50
2019-03-13T09:26:32.871Z,0.40
2019-03-13T09:29:12.691Z,0.40
2019-03-13T09:32:02.280Z,0.30
2019-03-13T09:34:41.495Z,0.50
2019-03-13T09:37:19.917Z,0.45
2019-03-13T09:39:57.937Z,0.50
2019-03-13T09:42:47.524Z,0.50
2019-03-13T09:45:24.979Z,0.50
2019-03-13T09:48:26.633Z,0.30
2019-03-13T09:51:19.471Z,0.40
2019-03-13T09:54:11.874Z,0.47
2019-03-13T09:56:58.611Z,0.40
2019-03-13T09:59:43.430Z,0.30
2019-03-13T10:02:30.046Z,0.40
2019-03-13T10:05:19.567Z,0.60
2019-03-13T10:07:54.693Z,0.37
2019-03-13T10:10:42.819Z,0.55
2019-03-13T10:13:23.342Z,0.40
2019-03-13T10:15:59.301Z,0.37
2019-03-13T10:18:33.675Z,0.45
2019-03-13T10:21:29.234Z,0.50
2019-03-13T10:24:03.484Z,0.50
2019-03-13T10:26:39.996Z,0.60
2019-03-13T10:29:25.126Z,0.50
2019-03-13T10:32:07.723Z,0.50
2019-03-13T10:34:44.777Z,0.57
2019-03-13T10:37:23.030Z,0.60
2019-03-13T10:40:21.776Z,0.50
2019-03-13T10:43:08.566Z,0.50
2019-03-13T10:45:58.127Z,0.57
2019-03-13T10:48:46.362Z,0.57
2019-03-13T10:51:41.738Z,0.70
2019-03-13T10:54:37.089Z,0.50
2019-03-13T10:57:21.601Z,0.40
2019-03-13T11:00:20.327Z,0.40
2019-03-13T11:03:07.176Z,0.40
2019-03-13T11:05:53.923Z,0.40
2019-03-13T11:08:26.547Z,0.40
2019-03-13T11:11:31.500Z,0.50
2019-03-13T11:14:18.277Z,0.40
2019-03-13T11:16:58.077Z,0.30
2019-03-13T11:19:43.244Z,0.40
2019-03-13T11:22:30.041Z,0.30
2019-03-13T11:25:06.019Z,0.20
2019-03-13T11:28:01.719Z,0.30
2019-03-13T11:30:49.045Z,0.50
2019-03-13T11:33:38.372Z,0.25
2019-03-13T11:36:11.802Z,0.30
2019-03-13T11:39:01.140Z,0.40
2019-03-13T11:42:06.057Z,0.42
2019-03-13T11:45:01.699Z,0.50
2019-03-13T11:47:46.891Z,0.50
2019-03-13T11:50:28.814Z,0.40
2019-03-13T11:53:15.578Z,0.30
2019-03-13T11:56:08.261Z,0.25
2019-03-13T11:58:45.046Z,0.42
2019-03-13T12:01:22.147Z,0.40
2019-03-13T12:04:11.050Z,0.33
2019-03-13T12:06:56.394Z,0.40
2019-03-13T12:09:29.038Z,0.50
2019-03-13T12:12:13.973Z,0.40
2019-03-13T12:14:52.480Z,0.50
2019-03-13T12:17:32.849Z,0.68
2019-03-13T12:20:20.649Z,0.50
2019-03-13T12:23:16.332Z,0.50
2019-03-13T12:26:05.875Z,0.40
2019-03-13T12:29:03.974Z,0.57
2019-03-13T12:31:53.509Z,0.42
2019-03-13T12:34:26.597Z,0.50
2019-03-13T12:37:11.566Z,0.53
2019-03-13T12:39:56.563Z,0.50
2019-03-13T12:42:41.638Z,0.40
2019-03-13T12:45:30.585Z,0.50
2019-03-13T12:48:23.228Z,0.50
2019-03-13T12:51:14.648Z,0.50
2019-03-13T12:54:06.936Z,0.68
2019-03-13T12:56:56.576Z,0.50
2019-03-13T12:59:41.807Z,0.40
2019-03-13T13:02:22.737Z,0.50
2019-03-13T13:05:02.930Z,0.50
2019-03-13T13:07:49.673Z,0.45
2019-03-13T13:10:35.430Z,0.47
2019-03-13T13:13:23.602Z,0.50
2019-03-13T13:16:07.466Z,0.60
2019-03-13T13:18:52.860Z,0.50
2019-03-13T13:21:20.248Z,0.57
2019-03-13T13:23:47.678Z,0.80
2019-03-13T13:26:15.056Z,0.60
2019-03-13T13:28:42.160Z,1.05
2019-03-13T13:31:09.494Z,0.60
2019-03-13T13:33:36.707Z,0.70
2019-03-13T13:36:04.836Z,0.60
2019-03-13T13:38:32.098Z,0.60
2019-03-13T13:40:59.214Z,0.50
2019-03-13T13:43:26.451Z,0.60
2019-03-13T13:46:32.903Z,0.62
2019-03-13T13:49:00.284Z,0.60
2019-03-13T13:51:27.490Z,0.80
2019-03-13T13:53:55.910Z,0.60
2019-03-13T13:56:23.298Z,0.95
2019-03-13T13:58:50.449Z,0.70
2019-03-13T14:01:17.682Z,0.70
2019-03-13T14:03:44.810Z,0.77
2019-03-13T14:06:11.926Z,1.00
2019-03-13T14:08:39.034Z,0.60
2019-03-13T14:11:06.494Z,0.70
2019-03-13T14:13:33.607Z,0.70
2019-03-13T14:16:00.832Z,0.63
2019-03-13T14:18:27.989Z,0.57
2019-03-13T14:20:55.281Z,0.60
2019-03-13T14:23:22.554Z,0.77
2019-03-13T14:25:49.689Z,0.70
2019-03-13T14:28:17.048Z,0.87
2019-03-13T14:30:44.224Z,0.53
2019-03-13T14:33:11.350Z,0.80
2019-03-13T14:35:38.502Z,0.90
2019-03-13T14:38:05.765Z,1.10
2019-03-13T14:40:32.877Z,0.70
2019-03-13T14:43:00.202Z,0.57
2019-03-13T14:45:27.463Z,0.70
2019-03-13T14:47:54.589Z,0.70
2019-03-13T14:50:21.835Z,0.80
2019-03-13T14:52:49.175Z,0.70
2019-03-13T14:55:16.829Z,0.80
2019-03-13T14:57:44.045Z,0.80
2019-03-13T15:00:13.610Z,1.27
2019-03-13T15:02:40.823Z,2.30
2019-03-13T15:05:08.057Z,1.23
2019-03-13T15:07:35.323Z,1.10
2019-03-13T15:10:02.733Z,1.20
2019-03-13T15:12:29.999Z,1.00
2019-03-13T15:14:57.206Z,0.90
2019-03-13T15:17:24.357Z,1.20
2019-03-13T15:19:51.666Z,0.87
2019-03-13T15:22:18.949Z,0.90
2019-03-13T15:24:46.122Z,0.90
2019-03-13T15:27:13.464Z,0.90
2019-03-13T15:29:40.733Z,1.00
2019-03-13T15:32:07.982Z,0.70
2019-03-13T15:34:35.211Z,1.10
2019-03-13T15:37:02.550Z,1.00
2019-03-13T15:39:29.715Z,1.00
2019-03-13T15:41:56.878Z,0.80
2019-03-13T15:44:24.007Z,0.87
2019-03-13T15:46:51.139Z,0.90
2019-03-13T15:49:18.313Z,0.90
2019-03-13T15:51:45.465Z,0.97
2019-03-13T15:54:12.607Z,1.10
2019-03-13T15:56:39.736Z,0.90
2019-03-13T15:59:06.902Z,1.17
2019-03-13T16:01:34.208Z,1.10
2019-03-13T16:04:01.410Z,1.10
2019-03-13T16:06:28.640Z,1.30
2019-03-13T16:08:55.921Z,1.30
2019-03-13T16:11:23.045Z,1.03
2019-03-13T16:13:50.151Z,1.30
2019-03-13T16:16:17.416Z,0.90
2019-03-13T16:18:44.530Z,1.00
2019-03-13T16:21:11.892Z,1.20
2019-03-13T16:23:39.130Z,1.00
2019-03-13T16:26:06.348Z,1.70
2019-03-13T16:28:33.501Z,1.03
2019-03-13T16:31:01.058Z,1.20
2019-03-13T16:33:28.177Z,1.00
2019-03-13T16:35:55.557Z,1.33
2019-03-13T16:38:22.851Z,1.20
2019-03-13T16:40:49.993Z,1.17
2019-03-13T16:43:17.634Z,0.90
2019-03-13T16:45:44.745Z,0.83
2019-03-13T16:48:11.905Z,0.70
2019-03-13T16:50:39.169Z,0.93
2019-03-13T16:53:06.398Z,1.20
2019-03-13T16:55:33.644Z,0.90
2019-03-13T16:58:00.869Z,1.27
2019-03-13T17:00:28.065Z,1.03
2019-03-13T17:02:55.317Z,0.90
2019-03-13T17:05:22.428Z,1.27
2019-03-13T17:07:50.343Z,1.13
2019-03-13T17:10:18.023Z,1.03
2019-03-13T17:12:45.650Z,1.10
2019-03-13T17:15:15.046Z,1.20
2019-03-13T17:17:42.355Z,1.10
2019-03-13T17:20:12.496Z,1.10
2019-03-13T17:22:43.089Z,0.90
2019-03-13T17:25:10.052Z,1.10
2019-03-13T17:27:37.402Z,1.00
2019-03-13T17:30:05.730Z,1.03
2019-03-13T17:32:33.001Z,1.00
2019-03-13T17:35:00.481Z,1.10
2019-03-13T17:37:27.881Z,1.20
2019-03-13T17:39:55.186Z,1.10
2019-03-13T17:42:22.378Z,0.97
2019-03-13T17:44:49.653Z,1.40
2019-03-13T17:47:16.783Z,2.10
2019-03-13T17:49:43.890Z,1.10
2019-03-13T17:52:11.067Z,1.00
2019-03-13T17:54:38.299Z,0.97
2019-03-13T17:57:05.403Z,0.93
2019-03-13T17:59:32.705Z,1.00
2019-03-13T18:01:59.941Z,1.10
2019-03-13T18:04:27.305Z,1.10
2019-03-13T18:06:54.426Z,1.17
2019-03-13T18:09:21.547Z,1.10
2019-03-13T18:11:48.756Z,0.90
2019-03-13T18:14:16.096Z,1.20
2019-03-13T18:16:43.263Z,1.40
2019-03-13T18:19:10.378Z,1.30
2019-03-13T18:21:37.637Z,1.07
2019-03-13T18:24:04.895Z,1.03
2019-03-13T18:26:32.085Z,1.10
2019-03-13T18:28:59.350Z,2.57
2019-03-13T18:31:26.527Z,1.30
2019-03-13T18:33:53.804Z,1.30
2019-03-13T18:36:20.935Z,1.47
2019-03-13T18:38:48.105Z,1.20
2019-03-13T18:41:15.244Z,0.93
2019-03-13T18:43:42.589Z,1.30
2019-03-13T18:46:09.757Z,1.00
2019-03-13T18:48:36.908Z,1.00
2019-03-13T18:51:04.160Z,1.23
2019-03-13T18:53:31.307Z,1.10
2019-03-13T18:55:58.611Z,1.00
2019-03-13T18:58:25.787Z,1.00
2019-03-13T19:00:52.873Z,1.07
2019-03-13T19:03:20.003Z,0.93
2019-03-13T19:05:47.236Z,1.47
2019-03-13T19:08:14.531Z,1.60
2019-03-13T19:10:41.847Z,1.40
2019-03-13T19:13:09.330Z,1.20
2019-03-13T19:15:39.845Z,0.90
2019-03-13T19:18:06.004Z,1.10
2019-03-13T19:20:33.551Z,1.20
2019-03-13T19:23:02.195Z,1.10
2019-03-13T19:25:29.620Z,0.90
2019-03-13T19:27:57.610Z,1.43
2019-03-13T19:30:26.502Z,1.20
2019-03-13T19:32:56.674Z,1.20
2019-03-13T19:35:24.103Z,1.40
2019-03-13T19:37:51.349Z,1.30
2019-03-13T19:40:18.638Z,1.10
2019-03-13T19:42:46.091Z,0.90
2019-03-13T19:45:15.922Z,1.20
2019-03-13T19:47:43.381Z,1.60
2019-03-13T19:50:11.046Z,1.07
2019-03-13T19:52:38.445Z,1.20
2019-03-13T19:55:06.957Z,1.33
2019-03-13T19:57:34.306Z,1.33
2019-03-13T20:00:01.860Z,1.10
2019-03-13T20:02:29.000Z,1.30
2019-03-13T20:04:56.436Z,1.10
2019-03-13T20:07:23.809Z,1.30
2019-03-13T20:09:51.471Z,1.13
2019-03-13T20:12:18.712Z,1.10
2019-03-13T20:14:46.129Z,1.10
2019-03-13T20:17:16.187Z,1.10
2019-03-13T20:19:43.287Z,1.10
2019-03-13T20:22:10.805Z,1.10
2019-03-13T20:24:38.878Z,1.20
2019-03-13T20:27:06.395Z,1.10
2019-03-13T20:29:33.885Z,0.90
2019-03-13T20:32:01.465Z,1.27
2019-03-13T20:34:29.046Z,1.00
2019-03-13T20:36:58.679Z,1.23
2019-03-13T20:39:26.865Z,1.10
2019-03-13T20:41:54.511Z,0.80
2019-03-13T20:44:21.993Z,1.20
2019-03-13T20:46:49.268Z,1.17
2019-03-13T20:49:16.533Z,0.90
2019-03-13T20:51:43.810Z,1.13
2019-03-13T20:54:11.097Z,1.17
2019-03-13T20:56:38.334Z,1.10
2019-03-13T20:59:05.582Z,1.00
2019-03-13T21:01:32.817Z,1.27
2019-03-13T21:04:00.063Z,1.10
2019-03-13T21:06:27.298Z,0.97
2019-03-13T21:08:54.610Z,1.40
2019-03-13T21:11:21.919Z,1.00
2019-03-13T21:13:49.242Z,0.90
2019-03-13T21:16:16.480Z,1.00
2019-03-13T21:18:43.827Z,1.00
2019-03-13T21:21:11.103Z,1.30
2019-03-13T21:23:38.333Z,0.77
2019-03-13T21:26:05.499Z,1.00
2019-03-13T21:28:32.791Z,1.23
2019-03-13T21:31:00.043Z,0.93
2019-03-13T21:33:27.284Z,1.00
2019-03-13T21:35:54.435Z,1.03
2019-03-13T21:38:21.783Z,1.20
2019-03-13T21:40:49.021Z,1.30
2019-03-13T21:43:16.631Z,1.50
2019-03-13T21:45:43.994Z,1.37
2019-03-13T21:48:11.316Z,1.10
2019-03-13T21:50:38.621Z,1.20
2019-03-13T21:53:05.888Z,1.20
2019-03-13T21:55:33.098Z,1.43
2019-03-13T21:58:00.375Z,1.07
2019-03-13T22:00:27.615Z,0.93
2019-03-13T22:02:54.993Z,1.20
2019-03-13T22:05:26.386Z,1.10
2019-03-13T22:07:51.650Z,1.03
2019-03-13T22:10:19.708Z,1.40
2019-03-13T22:12:46.985Z,1.47
2019-03-13T22:15:14.374Z,1.20
2019-03-13T22:17:41.631Z,1.17
2019-03-13T22:20:11.410Z,0.97
2019-03-13T22:22:38.607Z,1.10
2019-03-13T22:25:06.260Z,0.80
2019-03-13T22:27:33.531Z,1.10
2019-03-13T22:30:00.758Z,1.07
2019-03-13T22:32:28.005Z,0.93
2019-03-13T22:34:55.259Z,0.80
2019-03-13T22:37:22.516Z,0.87
2019-03-13T22:39:49.767Z,0.90
2019-03-13T22:42:17.044Z,1.10
2019-03-13T22:44:44.269Z,1.10
2019-03-13T22:47:11.510Z,0.87
2019-03-13T22:49:38.734Z,0.87
2019-03-13T22:52:05.954Z,0.87
2019-03-13T22:54:33.222Z,0.90
2019-03-13T22:57:00.465Z,0.80
2019-03-13T22:59:27.819Z,0.70
2019-03-13T23:01:55.187Z,0.77
2019-03-13T23:04:22.857Z,0.70
2019-03-13T23:06:50.131Z,0.90
2019-03-13T23:09:17.358Z,0.80
2019-03-13T23:11:44.735Z,0.87
2019-03-13T23:14:12.111Z,1.00
2019-03-13T23:16:39.335Z,1.20
2019-03-13T23:19:06.634Z,0.90
2019-03-13T23:21:33.910Z,0.80
2019-03-13T23:24:01.326Z,0.90
2019-03-13T23:26:28.685Z,0.80
2019-03-13T23:28:55.835Z,0.90
2019-03-13T23:31:23.069Z,1.13
2019-03-13T23:33:50.314Z,0.80
2019-03-13T23:36:17.636Z,1.00
2019-03-13T23:38:44.846Z,1.07
2019-03-13T23:41:12.109Z,1.10
2019-03-13T23:43:39.371Z,0.90
2019-03-13T23:46:06.679Z,0.90
2019-03-13T23:48:33.927Z,1.20
2019-03-13T23:51:01.096Z,1.10
2019-03-13T23:53:30.255Z,1.00
2019-03-13T23:55:57.690Z,0.80
2019-03-13T23:58:24.844Z,0.90
